createdAt,value
2022-08-17T00:01:52.664Z,94147.63
2022-08-17T00:04:22.035Z,94143.25
2022-08-17T00:06:51.541Z,94149.47
2022-08-17T00:09:21.826Z,94146.97
2022-08-17T00:12:35.485Z,94143.25
2022-08-17T00:14:50.986Z,94140.44
2022-08-17T00:17:19.624Z,94143.53
2022-08-17T00:19:48.251Z,94146.94
2022-08-17T00:22:31.088Z,94143.50
2022-08-17T00:25:20.882Z,94144.44
2022-08-17T00:27:49.389Z,94138.47
2022-08-17T00:30:18.072Z,94140.66
2022-08-17T00:33:15.711Z,94140.66
2022-08-17T00:35:38.618Z,94132.63
2022-08-17T00:38:09.911Z,94140.13
2022-08-17T00:40:44.630Z,94134.38
2022-08-17T00:43:21.772Z,94125.91
2022-08-17T00:45:51.251Z,94127.63
2022-08-17T00:48:27.232Z,94119.91
2022-08-17T00:51:08.674Z,94118.78
2022-08-17T00:53:56.304Z,94120.78
2022-08-17T00:56:34.585Z,94121.75
2022-08-17T00:59:06.544Z,94133.94
2022-08-17T01:01:36.358Z,94129.72
2022-08-17T01:04:06.209Z,94119.69
2022-08-17T01:06:35.930Z,94136.84
2022-08-17T01:09:06.464Z,94131.00
2022-08-17T01:11:41.223Z,94124.84
2022-08-17T01:14:10.259Z,94130.16
2022-08-17T01:16:40.038Z,94133.63
2022-08-17T01:19:32.531Z,94146.59
2022-08-17T01:22:10.187Z,94139.63
2022-08-17T01:24:44.987Z,94140.81
2022-08-17T01:27:15.495Z,94132.25
2022-08-17T01:29:52.273Z,94135.41
2022-08-17T01:32:21.663Z,94139.94
2022-08-17T01:34:50.989Z,94130.88
2022-08-17T01:37:50.461Z,94127.25
2022-08-17T01:40:33.791Z,94127.53
2022-08-17T01:43:10.510Z,94129.00
2022-08-17T01:45:45.833Z,94128.50
2022-08-17T01:48:15.456Z,94125.81
2022-08-17T01:50:47.063Z,94128.28
2022-08-17T01:53:21.065Z,94128.06
2022-08-17T01:55:55.434Z,94139.34
2022-08-17T01:58:25.224Z,94138.22
2022-08-17T02:01:00.501Z,94136.81
2022-08-17T02:03:31.144Z,94133.88
2022-08-17T02:06:00.119Z,94130.56
2022-08-17T02:08:38.934Z,94137.28
2022-08-17T02:11:23.425Z,94129.66
2022-08-17T02:13:55.138Z,94129.25
2022-08-17T02:16:37.395Z,94136.22
2022-08-17T02:19:15.710Z,94132.63
2022-08-17T02:21:49.554Z,94127.72
2022-08-17T02:25:00.188Z,94133.72
2022-08-17T02:27:14.497Z,94129.00
2022-08-17T02:29:43.087Z,94133.56
2022-08-17T02:32:25.513Z,94130.00
2022-08-17T02:34:56.815Z,94133.91
2022-08-17T02:37:25.863Z,94141.69
2022-08-17T02:39:54.631Z,94138.97
2022-08-17T02:42:31.528Z,94145.63
2022-08-17T02:45:00.538Z,94143.66
2022-08-17T02:47:29.948Z,94142.09
2022-08-17T02:49:58.867Z,94144.03
2022-08-17T02:52:43.492Z,94149.16
2022-08-17T02:55:16.956Z,94147.13
2022-08-17T02:57:48.381Z,94146.50
2022-08-17T03:00:22.377Z,94148.88
2022-08-17T03:02:53.173Z,94150.66
2022-08-17T03:05:25.580Z,94152.91
2022-08-17T03:07:54.707Z,94154.06
2022-08-17T03:10:24.750Z,94156.53
2022-08-17T03:12:55.758Z,94163.00
2022-08-17T03:15:27.206Z,94154.47
2022-08-17T03:17:58.344Z,94162.41
2022-08-17T03:20:31.555Z,94158.59
2022-08-17T03:23:02.906Z,94164.25
2022-08-17T03:25:35.652Z,94169.38
2022-08-17T03:28:07.077Z,94158.09
2022-08-17T03:30:36.927Z,94172.16
2022-08-17T03:33:11.257Z,94162.22
2022-08-17T03:35:41.851Z,94168.50
2022-08-17T03:38:15.895Z,94165.88
2022-08-17T03:40:57.432Z,94168.50
2022-08-17T03:43:33.232Z,94177.44
2022-08-17T03:46:34.759Z,94179.69
2022-08-17T03:49:24.605Z,94179.59
2022-08-17T03:52:19.541Z,94176.16
2022-08-17T03:55:05.313Z,94182.50
2022-08-17T03:57:33.980Z,94183.97
2022-08-17T04:00:05.721Z,94183.97
2022-08-17T04:02:35.790Z,94187.69
2022-08-17T04:05:04.919Z,94187.09
2022-08-17T04:07:48.950Z,94185.81
2022-08-17T04:10:17.865Z,94179.00
2022-08-17T04:12:50.906Z,94184.88
2022-08-17T04:15:21.659Z,94191.16
2022-08-17T04:17:50.274Z,94198.59
2022-08-17T04:20:21.980Z,94199.69
2022-08-17T04:23:11.012Z,94206.09
2022-08-17T04:25:46.111Z,94216.00
2022-08-17T04:28:16.176Z,94219.97
2022-08-17T04:30:48.142Z,94217.22
2022-08-17T04:33:20.468Z,94211.69
2022-08-17T04:35:52.206Z,94223.63
2022-08-17T04:38:24.471Z,94220.44
2022-08-17T04:41:11.412Z,94212.31
2022-08-17T04:43:42.334Z,94218.63
2022-08-17T04:46:18.373Z,94221.19
2022-08-17T04:48:50.172Z,94220.75
2022-08-17T04:51:23.512Z,94219.41
2022-08-17T04:53:55.744Z,94227.19
2022-08-17T04:56:27.238Z,94226.91
2022-08-17T04:59:00.188Z,94230.06
2022-08-17T05:01:34.563Z,94239.50
2022-08-17T05:04:21.482Z,94234.50
2022-08-17T05:06:55.850Z,94228.41
2022-08-17T05:09:24.907Z,94230.16
2022-08-17T05:12:03.400Z,94224.06
2022-08-17T05:14:40.813Z,94226.25
2022-08-17T05:17:11.107Z,94232.22
2022-08-17T05:19:41.213Z,94228.75
2022-08-17T05:22:09.810Z,94234.44
2022-08-17T05:24:43.755Z,94233.34
2022-08-17T05:27:22.896Z,94240.84
2022-08-17T05:29:52.208Z,94227.53
2022-08-17T05:32:39.006Z,94238.97
2022-08-17T05:35:09.804Z,94240.34
2022-08-17T05:37:39.069Z,94243.31
2022-08-17T05:40:09.986Z,94242.53
2022-08-17T05:43:07.977Z,94234.53
2022-08-17T05:45:54.729Z,94236.41
2022-08-17T05:48:35.286Z,94241.91
2022-08-17T05:51:51.229Z,94227.25
2022-08-17T05:54:51.863Z,94239.81
2022-08-17T05:57:47.459Z,94226.25
2022-08-17T06:00:31.161Z,94236.06
2022-08-17T06:03:39.545Z,94237.53
2022-08-17T06:06:34.731Z,94237.88
2022-08-17T06:09:28.833Z,94239.31
2022-08-17T06:12:14.352Z,94240.09
2022-08-17T06:15:10.842Z,94235.56
2022-08-17T06:17:40.783Z,94234.59
2022-08-17T06:20:15.456Z,94228.94
2022-08-17T06:22:51.819Z,94229.84
2022-08-17T06:25:31.344Z,94238.59
2022-08-17T06:28:07.224Z,94236.50
2022-08-17T06:30:59.195Z,94229.72
2022-08-17T06:33:36.644Z,94230.41
2022-08-17T06:36:26.546Z,94226.63
2022-08-17T06:39:19.830Z,94226.84
2022-08-17T06:42:02.658Z,94221.41
2022-08-17T06:44:49.804Z,94219.25
2022-08-17T06:47:30.347Z,94216.13
2022-08-17T06:50:14.692Z,94214.41
2022-08-17T06:52:57.394Z,94212.63
2022-08-17T06:55:37.835Z,94210.28
2022-08-17T06:58:15.802Z,94215.38
2022-08-17T07:00:48.756Z,94223.25
2022-08-17T07:03:33.416Z,94221.50
2022-08-17T07:06:09.866Z,94218.53
2022-08-17T07:08:56.821Z,94218.22
2022-08-17T07:11:33.379Z,94210.97
2022-08-17T07:14:18.451Z,94215.38
2022-08-17T07:16:51.654Z,94225.63
2022-08-17T07:19:24.963Z,94214.91
2022-08-17T07:22:02.646Z,94214.97
2022-08-17T07:24:43.432Z,94221.03
2022-08-17T07:27:18.242Z,94222.53
2022-08-17T07:29:53.738Z,94221.50
2022-08-17T07:32:28.456Z,94217.66
2022-08-17T07:35:19.899Z,94213.63
2022-08-17T07:37:54.289Z,94213.75
2022-08-17T07:40:37.455Z,94210.28
2022-08-17T07:43:24.938Z,94201.47
2022-08-17T07:46:37.149Z,94205.28
2022-08-17T07:49:26.097Z,94194.50
2022-08-17T07:52:48.025Z,94197.06
2022-08-17T07:54:56.104Z,94200.28
2022-08-17T07:57:35.310Z,94194.41
2022-08-17T08:00:30.811Z,94191.06
2022-08-17T08:03:17.737Z,94195.63
2022-08-17T08:05:55.088Z,94194.47
2022-08-17T08:08:31.230Z,94192.19
2022-08-17T08:11:07.336Z,94191.75
2022-08-17T08:13:42.809Z,94189.22
2022-08-17T08:16:30.722Z,94190.03
2022-08-17T08:19:03.625Z,94181.00
2022-08-17T08:21:53.561Z,94183.66
2022-08-17T08:25:01.543Z,94175.28
2022-08-17T08:27:48.834Z,94178.03
2022-08-17T08:30:22.439Z,94176.47
2022-08-17T08:33:33.221Z,94167.88
2022-08-17T08:36:57.092Z,94174.66
2022-08-17T08:39:16.567Z,94171.09
2022-08-17T08:41:57.092Z,94177.38
2022-08-17T08:45:00.244Z,94172.06
2022-08-17T08:48:05.304Z,94171.72
2022-08-17T08:50:48.896Z,94173.50
2022-08-17T08:53:49.752Z,94171.19
2022-08-17T08:56:29.218Z,94160.81
2022-08-17T08:59:12.926Z,94162.44
2022-08-17T09:02:01.480Z,94167.38
2022-08-17T09:05:14.236Z,94165.50
2022-08-17T09:07:58.531Z,94163.03
2022-08-17T09:10:35.029Z,94165.50
2022-08-17T09:13:22.465Z,94159.34
2022-08-17T09:15:59.361Z,94163.25
2022-08-17T09:19:00.417Z,94154.78
2022-08-17T09:21:48.577Z,94160.31
2022-08-17T09:24:26.237Z,94161.16
2022-08-17T09:27:04.759Z,94158.22
2022-08-17T09:29:40.164Z,94161.34
2022-08-17T09:32:20.600Z,94160.59
2022-08-17T09:34:55.704Z,94174.56
2022-08-17T09:37:35.014Z,94169.16
2022-08-17T09:40:14.400Z,94156.00
2022-08-17T09:42:51.153Z,94156.81
2022-08-17T09:45:36.006Z,94162.66
2022-08-17T09:48:16.612Z,94155.28
2022-08-17T09:51:04.792Z,94155.66
2022-08-17T09:53:39.600Z,94158.38
2022-08-17T09:56:46.038Z,94155.34
2022-08-17T09:59:38.623Z,94148.38
2022-08-17T10:02:40.733Z,94149.94
2022-08-17T10:05:16.472Z,94149.16
2022-08-17T10:07:56.097Z,94142.63
2022-08-17T10:10:34.510Z,94142.28
2022-08-17T10:13:16.358Z,94134.53
2022-08-17T10:15:58.211Z,94132.94
2022-08-17T10:18:44.137Z,94133.38
2022-08-17T10:21:32.870Z,94133.81
2022-08-17T10:24:27.958Z,94131.53
2022-08-17T10:27:03.047Z,94131.16
2022-08-17T10:29:46.199Z,94130.47
2022-08-17T10:32:34.073Z,94128.69
2022-08-17T10:35:36.927Z,94127.53
2022-08-17T10:38:33.928Z,94121.75
2022-08-17T10:41:20.813Z,94121.81
2022-08-17T10:44:40.391Z,94113.63
2022-08-17T10:47:09.233Z,94120.56
2022-08-17T10:49:44.477Z,94115.91
2022-08-17T10:52:48.703Z,94117.78
2022-08-17T10:55:20.586Z,94112.41
2022-08-17T10:57:51.682Z,94120.53
2022-08-17T11:01:04.119Z,94110.50
2022-08-17T11:03:33.562Z,94116.38
2022-08-17T11:06:18.021Z,94121.47
2022-08-17T11:09:21.642Z,94098.63
2022-08-17T11:12:16.262Z,94113.34
2022-08-17T11:15:05.178Z,94109.91
2022-08-17T11:18:21.400Z,94107.97
2022-08-17T11:21:39.653Z,94113.03
2022-08-17T11:24:23.391Z,94105.69
2022-08-17T11:27:12.313Z,94114.13
2022-08-17T11:29:58.076Z,94122.22
2022-08-17T11:32:38.604Z,94116.69
2022-08-17T11:35:39.106Z,94114.47
2022-08-17T11:38:25.774Z,94113.34
2022-08-17T11:41:19.905Z,94110.66
2022-08-17T11:44:26.088Z,94107.59
2022-08-17T11:47:34.202Z,94112.63
2022-08-17T11:51:01.752Z,94124.22
2022-08-17T11:54:30.524Z,94129.19
2022-08-17T11:56:59.190Z,94123.38
2022-08-17T11:59:58.954Z,94119.50
2022-08-17T12:02:48.853Z,94117.38
2022-08-17T12:05:36.808Z,94123.72
2022-08-17T12:08:18.513Z,94124.16
2022-08-17T12:11:09.742Z,94123.47
2022-08-17T12:13:47.854Z,94122.78
2022-08-17T12:16:18.602Z,94117.78
2022-08-17T12:18:54.194Z,94113.84
2022-08-17T12:21:40.998Z,94115.41
2022-08-17T12:24:33.174Z,94111.63
2022-08-17T12:27:05.831Z,94125.66
2022-08-17T12:29:38.730Z,94121.72
2022-08-17T12:32:18.162Z,94124.72
2022-08-17T12:34:50.722Z,94116.56
2022-08-17T12:37:26.174Z,94121.66
2022-08-17T12:40:00.010Z,94115.03
2022-08-17T12:42:36.055Z,94106.53
2022-08-17T12:45:07.867Z,94106.19
2022-08-17T12:47:39.181Z,94110.50
2022-08-17T12:50:29.909Z,94099.28
2022-08-17T12:53:02.714Z,94102.41
2022-08-17T12:55:38.982Z,94106.28
2022-08-17T12:58:14.752Z,94092.03
2022-08-17T13:00:51.112Z,94100.56
2022-08-17T13:03:24.507Z,94097.09
2022-08-17T13:06:01.309Z,94090.13
2022-08-17T13:08:36.490Z,94088.19
2022-08-17T13:11:10.013Z,94086.66
2022-08-17T13:13:42.594Z,94083.97
2022-08-17T13:16:21.493Z,94075.84
2022-08-17T13:18:54.802Z,94081.66
2022-08-17T13:21:30.700Z,94073.88
2022-08-17T13:24:06.085Z,94072.34
2022-08-17T13:26:41.647Z,94069.22
2022-08-17T13:29:24.996Z,94071.56
2022-08-17T13:32:04.787Z,94076.22
2022-08-17T13:35:06.512Z,94073.94
2022-08-17T13:37:35.339Z,94067.72
2022-08-17T13:40:31.221Z,94068.50
2022-08-17T13:43:03.383Z,94065.78
2022-08-17T13:45:50.485Z,94063.44
2022-08-17T13:48:37.976Z,94056.50
2022-08-17T13:51:21.097Z,94062.69
2022-08-17T13:54:07.709Z,94044.88
2022-08-17T13:56:50.866Z,94053.00
2022-08-17T13:59:53.572Z,94048.75
2022-08-17T14:02:22.593Z,94048.34
2022-08-17T14:04:58.755Z,94042.56
2022-08-17T14:07:34.992Z,94040.63
2022-08-17T14:10:12.542Z,94033.66
2022-08-17T14:12:46.759Z,94038.28
2022-08-17T14:15:20.654Z,94031.34
2022-08-17T14:17:50.724Z,94039.84
2022-08-17T14:20:23.427Z,94039.06
2022-08-17T14:22:55.699Z,94040.59
2022-08-17T14:25:29.066Z,94045.25
2022-08-17T14:27:59.707Z,94037.53
2022-08-17T14:30:30.059Z,94036.75
2022-08-17T14:33:02.628Z,94037.50
2022-08-17T14:35:31.469Z,94038.66
2022-08-17T14:38:00.875Z,94039.03
2022-08-17T14:40:29.873Z,94035.97
2022-08-17T14:43:01.385Z,94043.34
2022-08-17T14:45:33.223Z,94039.44
2022-08-17T14:48:06.485Z,94043.28
2022-08-17T14:50:36.100Z,94036.72
2022-08-17T14:53:06.703Z,94044.06
2022-08-17T14:55:36.880Z,94040.22
2022-08-17T14:58:06.988Z,94046.00
2022-08-17T15:00:36.574Z,94048.72
2022-08-17T15:03:06.103Z,94054.91
2022-08-17T15:05:37.768Z,94049.88
2022-08-17T15:08:08.499Z,94046.00
2022-08-17T15:10:37.701Z,94052.97
2022-08-17T15:13:19.620Z,94052.19
2022-08-17T15:15:49.247Z,94049.88
2022-08-17T15:18:18.658Z,94056.06
2022-08-17T15:20:49.615Z,94056.38
2022-08-17T15:23:21.805Z,94057.94
2022-08-17T15:25:53.160Z,94051.75
2022-08-17T15:28:24.057Z,94050.56
2022-08-17T15:30:54.238Z,94061.41
2022-08-17T15:33:29.516Z,94063.31
2022-08-17T15:36:00.874Z,94059.03
2022-08-17T15:38:30.737Z,94060.19
2022-08-17T15:40:59.345Z,94052.47
2022-08-17T15:43:32.852Z,94050.91
2022-08-17T15:46:07.743Z,94058.22
2022-08-17T15:48:44.956Z,94057.34
2022-08-17T15:51:22.599Z,94055.00
2022-08-17T15:54:04.403Z,94063.09
2022-08-17T15:56:48.143Z,94062.63
2022-08-17T15:59:18.449Z,94066.06
2022-08-17T16:03:01.723Z,94062.94
2022-08-17T16:04:35.750Z,94060.91
2022-08-17T16:07:09.196Z,94067.81
2022-08-17T16:09:39.677Z,94073.97
2022-08-17T16:12:14.416Z,94073.84
2022-08-17T16:14:45.494Z,94069.56
2022-08-17T16:17:29.592Z,94067.59
2022-08-17T16:20:04.586Z,94066.72
2022-08-17T16:22:36.968Z,94075.97
2022-08-17T16:25:15.268Z,94074.75
2022-08-17T16:27:44.655Z,94072.69
2022-08-17T16:30:17.893Z,94078.00
2022-08-17T16:32:48.757Z,94073.66
2022-08-17T16:35:22.264Z,94070.13
2022-08-17T16:37:55.465Z,94070.75
2022-08-17T16:40:31.269Z,94070.75
2022-08-17T16:43:12.281Z,94071.44
2022-08-17T16:45:42.463Z,94074.72
2022-08-17T16:48:12.085Z,94076.44
2022-08-17T16:50:40.878Z,94082.50
2022-08-17T16:53:17.404Z,94081.16
2022-08-17T16:55:48.237Z,94088.59
2022-08-17T16:58:17.881Z,94084.56
2022-08-17T17:00:48.923Z,94088.69
2022-08-17T17:03:20.988Z,94087.69
2022-08-17T17:06:08.494Z,94084.38
2022-08-17T17:08:44.997Z,94091.06
2022-08-17T17:11:20.155Z,94088.94
2022-08-17T17:13:57.973Z,94092.06
2022-08-17T17:16:46.786Z,94092.72
2022-08-17T17:19:34.493Z,94098.16
2022-08-17T17:22:16.348Z,94102.84
2022-08-17T17:25:02.480Z,94107.72
2022-08-17T17:27:42.597Z,94109.06
2022-08-17T17:30:16.317Z,94105.53
2022-08-17T17:32:52.853Z,94115.22
2022-08-17T17:35:31.667Z,94116.59
2022-08-17T17:38:06.493Z,94118.78
2022-08-17T17:40:42.806Z,94117.75
2022-08-17T17:43:37.767Z,94123.34
2022-08-17T17:46:27.126Z,94132.66
2022-08-17T17:48:59.570Z,94140.38
2022-08-17T17:52:08.729Z,94137.34
2022-08-17T17:54:52.654Z,94139.75
2022-08-17T17:57:36.198Z,94135.50
2022-08-17T18:00:14.847Z,94141.44
2022-08-17T18:03:02.939Z,94153.91
2022-08-17T18:05:52.861Z,94155.97
2022-08-17T18:08:44.943Z,94161.22
2022-08-17T18:11:51.345Z,94167.28
2022-08-17T18:14:37.744Z,94166.41
2022-08-17T18:17:08.186Z,94169.41
2022-08-17T18:19:40.064Z,94165.63
2022-08-17T18:22:15.097Z,94166.38
2022-08-17T18:24:48.267Z,94164.53
2022-08-17T18:27:26.429Z,94179.72
2022-08-17T18:29:58.272Z,94179.78
2022-08-17T18:32:37.119Z,94184.22
2022-08-17T18:35:35.324Z,94190.53
2022-08-17T18:38:28.541Z,94200.88
2022-08-17T18:41:07.063Z,94197.88
2022-08-17T18:43:53.241Z,94209.47
2022-08-17T18:46:31.425Z,94197.88
2022-08-17T18:49:04.573Z,94202.22
2022-08-17T18:51:42.476Z,94202.91
2022-08-17T18:54:22.933Z,94198.91
2022-08-17T18:56:56.234Z,94207.72
2022-08-17T18:59:36.429Z,94207.13
2022-08-17T19:05:13.798Z,94208.03
2022-08-17T19:07:47.091Z,94213.91
2022-08-17T19:10:24.309Z,94214.94
2022-08-17T19:13:12.426Z,94221.41
2022-08-17T19:16:15.070Z,94215.34
2022-08-17T19:18:44.665Z,94221.84
2022-08-17T19:21:20.757Z,94219.25
2022-08-17T19:23:58.944Z,94224.09
2022-08-17T19:26:53.609Z,94229.75
2022-08-17T19:29:32.787Z,94219.09
2022-08-17T19:32:04.284Z,94222.13
2022-08-17T19:34:37.037Z,94220.91
2022-08-17T19:37:13.677Z,94222.63
2022-08-17T19:39:55.966Z,94222.00
2022-08-17T19:42:42.804Z,94226.72
2022-08-17T19:45:24.295Z,94226.59
2022-08-17T19:48:07.648Z,94234.94
2022-08-17T19:50:49.684Z,94234.34
2022-08-17T19:53:54.057Z,94229.91
2022-08-17T19:56:32.422Z,94234.34
2022-08-17T19:59:14.803Z,94231.25
2022-08-17T20:01:51.621Z,94230.94
2022-08-17T20:04:36.825Z,94232.97
2022-08-17T20:07:12.517Z,94236.09
2022-08-17T20:09:47.432Z,94231.53
2022-08-17T20:12:21.677Z,94226.53
2022-08-17T20:14:57.917Z,94235.63
2022-08-17T20:17:33.218Z,94241.13
2022-08-17T20:20:19.345Z,94228.72
2022-08-17T20:23:00.518Z,94231.56
2022-08-17T20:25:39.324Z,94231.25
2022-08-17T20:28:24.516Z,94239.25
2022-08-17T20:30:55.304Z,94234.19
2022-08-17T20:33:29.134Z,94228.09
2022-08-17T20:36:20.892Z,94235.03
2022-08-17T20:38:55.483Z,94244.88
2022-08-17T20:41:44.969Z,94238.00
2022-08-17T20:44:32.913Z,94242.84
2022-08-17T20:47:11.181Z,94242.72
2022-08-17T20:50:00.681Z,94245.88
2022-08-17T20:52:53.913Z,94250.38
2022-08-17T20:55:55.611Z,94247.88
2022-08-17T20:58:54.335Z,94246.47
2022-08-17T21:01:39.789Z,94240.00
2022-08-17T21:05:00.912Z,94244.88
2022-08-17T21:07:58.035Z,94245.34
2022-08-17T21:10:38.699Z,94246.00
2022-08-17T21:13:48.696Z,94238.63
2022-08-17T21:16:41.722Z,94243.16
2022-08-17T21:19:44.363Z,94238.94
2022-08-17T21:22:40.847Z,94242.44
2022-08-17T21:25:32.460Z,94237.09
2022-08-17T21:28:29.950Z,94237.56
2022-08-17T21:31:09.039Z,94253.22
2022-08-17T21:33:40.613Z,94251.50
2022-08-17T21:36:33.231Z,94258.25
2022-08-17T21:39:11.523Z,94257.16
2022-08-17T21:41:52.825Z,94263.91
2022-08-17T21:44:31.783Z,94270.19
2022-08-17T21:47:21.972Z,94266.09
2022-08-17T21:49:51.036Z,94269.53
2022-08-17T21:52:24.553Z,94270.16
2022-08-17T21:55:00.345Z,94275.97
2022-08-17T21:57:31.485Z,94275.34
2022-08-17T22:00:04.551Z,94274.53
2022-08-17T22:02:37.370Z,94283.03
2022-08-17T22:05:10.253Z,94277.06
2022-08-17T22:07:42.671Z,94283.03
2022-08-17T22:10:33.376Z,94271.59
2022-08-17T22:13:16.474Z,94272.03
2022-08-17T22:15:50.182Z,94267.47
2022-08-17T22:18:29.051Z,94267.63
2022-08-17T22:21:04.277Z,94275.00
2022-08-17T22:23:54.761Z,94265.13
2022-08-17T22:26:28.502Z,94267.50
2022-08-17T22:29:00.122Z,94260.75
2022-08-17T22:31:32.964Z,94257.31
2022-08-17T22:34:15.925Z,94261.25
2022-08-17T22:36:44.872Z,94262.34
2022-08-17T22:39:41.648Z,94263.59
2022-08-17T22:42:16.698Z,94265.78
2022-08-17T22:44:53.365Z,94263.75
2022-08-17T22:47:38.916Z,94263.28
2022-08-17T22:50:25.934Z,94264.22
2022-08-17T22:53:18.221Z,94255.75
2022-08-17T22:56:15.942Z,94252.78
2022-08-17T22:59:20.552Z,94257.31
2022-08-17T23:02:20.646Z,94251.22
2022-08-17T23:04:52.934Z,94263.44
2022-08-17T23:07:22.679Z,94254.81
2022-08-17T23:09:54.753Z,94257.94
2022-08-17T23:12:28.038Z,94256.06
2022-08-17T23:15:03.499Z,94252.94
2022-08-17T23:17:37.160Z,94256.22
2022-08-17T23:20:09.163Z,94248.81
2022-08-17T23:22:51.735Z,94253.97
2022-08-17T23:25:29.381Z,94254.91
2022-08-17T23:28:01.608Z,94248.19
2022-08-17T23:30:33.965Z,94263.38
2022-08-17T23:33:07.378Z,94248.97
2022-08-17T23:35:40.296Z,94258.03
2022-08-17T23:38:10.894Z,94260.38
2022-08-17T23:40:40.760Z,94261.94
2022-08-17T23:43:24.800Z,94259.91
2022-08-17T23:46:00.763Z,94266.00
2022-08-17T23:48:35.801Z,94261.91
2022-08-17T23:51:10.856Z,94266.41
2022-08-17T23:53:46.265Z,94262.34
2022-08-17T23:56:15.968Z,94253.09
2022-08-17T23:58:45.852Z,94261.03
